Time;durP1;ratioP1;P1;durP2;ratioP2;P2;SDS_P1;SDS_P2;PMS_P1;PMS_P2;Temp;Humidity;BMP_temperature;BMP_pressure;BME280_temperature;BME280_humidity;BME280_pressure;Samples;Min_cycle;Max_cycle;Signal;HPM_P1;HPM_P2
2022/11/21 00:01:16;;;;;;;23.05;15.45;;;;;;;0.91;74.50;99040.89;1764767;80;20973;-40
2022/11/21 00:03:45;;;;;;;24.65;16.50;;;;;;;0.88;74.53;99044.16;1742153;81;20942;-40
2022/11/21 00:06:14;;;;;;;22.85;15.60;;;;;;;0.81;74.75;99047.80;1762319;81;21670;-40
2022/11/21 00:08:43;;;;;;;20.52;14.83;;;;;;;0.78;74.85;99057.73;1762558;81;20970;-40
2022/11/21 00:11:10;;;;;;;20.65;14.95;;;;;;;0.79;74.79;99059.31;1762308;81;21006;-40
2022/11/21 00:13:38;;;;;;;22.07;16.02;;;;;;;0.79;75.04;99063.31;1761830;81;20974;-40
2022/11/21 00:16:13;;;;;;;21.20;14.68;;;;;;;0.78;75.08;99052.39;1761782;81;20884;-40
2022/11/21 00:18:39;;;;;;;21.30;14.70;;;;;;;0.78;74.92;99047.05;1761889;80;21041;-40
2022/11/21 00:21:16;;;;;;;23.12;15.18;;;;;;;0.78;74.74;99057.19;1761854;81;21005;-40
2022/11/21 00:23:45;;;;;;;21.50;14.47;;;;;;;0.78;74.87;99057.73;1740266;81;21017;-40
2022/11/21 00:26:13;;;;;;;21.35;14.43;;;;;;;0.76;74.96;99055.37;1761853;81;20970;-40
2022/11/21 00:28:41;;;;;;;22.52;14.43;;;;;;;0.77;75.08;99053.50;1761933;80;21038;-40
2022/11/21 00:31:19;;;;;;;21.00;14.70;;;;;;;0.87;75.16;99038.59;1762008;80;21001;-40
2022/11/21 00:33:48;;;;;;;20.60;14.78;;;;;;;0.95;74.74;99027.18;1762112;81;21141;-40
2022/11/21 00:36:16;;;;;;;21.90;15.00;;;;;;;0.95;74.84;99029.84;1762083;81;20891;-40
2022/11/21 00:38:43;;;;;;;22.42;15.15;;;;;;;1.00;74.88;99026.27;1762071;81;21009;-40
2022/11/21 00:41:10;;;;;;;19.45;13.53;;;;;;;1.05;74.92;99016.26;1761930;81;21500;-40
2022/11/21 00:43:39;;;;;;;21.80;15.55;;;;;;;1.11;74.69;99023.05;1762039;81;21858;-40
2022/11/21 00:46:05;;;;;;;26.48;14.80;;;;;;;1.16;74.19;99022.89;1762108;81;21244;-40
2022/11/21 00:48:32;;;;;;;21.75;14.98;;;;;;;1.13;74.09;99010.71;1762123;81;21026;-40
2022/11/21 00:50:59;;;;;;;25.23;15.10;;;;;;;1.07;74.01;99002.59;1762088;81;21013;-40
2022/11/21 00:53:26;;;;;;;19.60;14.00;;;;;;;1.00;74.16;99002.24;1761886;81;20977;-40
2022/11/21 00:55:52;;;;;;;21.65;14.60;;;;;;;0.98;74.37;99000.41;1761965;81;20943;-40
2022/11/21 00:58:19;;;;;;;26.10;16.80;;;;;;;1.05;74.47;98996.78;1761715;81;21246;-40
2022/11/21 01:00:46;;;;;;;25.15;17.50;;;;;;;1.14;74.56;98990.39;1772111;79;20938;-40
2022/11/21 01:03:13;;;;;;;31.30;19.02;;;;;;;1.16;74.29;98990.86;1783537;80;20953;-40
2022/11/21 01:05:40;;;;;;;30.90;18.07;;;;;;;1.15;74.19;98985.84;1783737;80;21016;-40
2022/11/21 01:08:07;;;;;;;28.83;17.27;;;;;;;1.13;74.02;98992.03;1783703;80;20964;-40
2022/11/21 01:10:35;;;;;;;26.55;17.82;;;;;;;1.11;74.09;99008.38;1783818;80;21534;-40
2022/11/21 01:13:02;;;;;;;31.02;19.40;;;;;;;1.14;74.30;99013.09;1783737;80;20953;-40
2022/11/21 01:15:29;;;;;;;32.28;19.42;;;;;;;1.20;74.45;99003.08;1783806;80;21003;-40
2022/11/21 01:17:56;;;;;;;27.48;17.87;;;;;;;1.21;74.17;98985.97;1783621;80;21523;-40
2022/11/21 01:20:22;;;;;;;28.25;17.75;;;;;;;1.18;73.99;98982.01;1783805;80;20999;-40
2022/11/21 01:22:49;;;;;;;30.80;18.48;;;;;;;1.20;73.83;98974.49;1783723;80;21247;-40
2022/11/21 01:25:17;;;;;;;30.82;17.95;;;;;;;1.20;74.04;98973.16;1783679;80;20964;-40
2022/11/21 01:27:44;;;;;;;23.85;17.05;;;;;;;1.22;74.21;98977.63;1783697;80;20897;-40
2022/11/21 01:30:13;;;;;;;26.15;17.65;;;;;;;1.23;74.00;98978.42;1783508;80;21347;-40
2022/11/21 01:32:40;;;;;;;28.10;18.00;;;;;;;1.27;73.99;98972.70;1783976;80;21536;-40
2022/11/21 01:35:08;;;;;;;25.25;17.52;;;;;;;1.38;73.62;98965.21;1783857;80;21091;-40
2022/11/21 01:37:36;;;;;;;31.25;18.92;;;;;;;1.31;73.45;98958.42;1784017;80;21033;-40
2022/11/21 01:40:05;;;;;;;30.72;18.23;;;;;;;1.25;73.68;98967.69;1784000;80;21004;-40
2022/11/21 01:42:58;;;;;;;30.23;19.15;;;;;;;1.22;73.82;98963.48;1784205;80;20949;-40
2022/11/21 01:45:56;;;;;;;26.20;17.87;;;;;;;1.21;73.80;98973.38;1747924;80;20965;-40
2022/11/21 01:48:37;;;;;;;28.47;18.37;;;;;;;1.28;73.85;98968.94;1783864;80;21089;-40
2022/11/21 01:51:12;;;;;;;28.35;19.00;;;;;;;1.33;74.08;98964.80;1783677;80;20953;-40
2022/11/21 01:53:39;;;;;;;28.07;18.50;;;;;;;1.35;73.74;98973.84;1780102;80;21526;-40
2022/11/21 01:56:05;;;;;;;27.00;18.85;;;;;;;1.36;73.80;98975.40;1751181;80;21079;-40
2022/11/21 01:58:33;;;;;;;29.98;19.73;;;;;;;1.42;73.82;98969.63;1783585;80;20973;-40
2022/11/21 02:01:01;;;;;;;30.32;19.73;;;;;;;1.54;73.46;98982.41;1774177;80;22073;-40
2022/11/21 02:03:29;;;;;;;29.12;19.52;;;;;;;1.61;73.15;98986.20;1761624;81;21077;-40
2022/11/21 02:05:55;;;;;;;33.98;20.62;;;;;;;1.63;73.03;98996.58;1756163;81;20958;-40
2022/11/21 02:08:23;;;;;;;29.90;19.52;;;;;;;1.68;72.87;98999.12;1761843;81;21003;-40
2022/11/21 02:11:24;;;;;;;27.27;18.48;;;;;;;1.68;72.66;98999.12;1762055;81;21543;-40
2022/11/21 02:13:51;;;;;;;28.07;16.97;;;;;;;1.69;72.55;98994.02;1761797;80;22058;-40
2022/11/21 02:16:17;;;;;;;26.17;17.65;;;;;;;1.79;72.25;99002.30;1761988;81;21006;-40
2022/11/21 02:18:46;;;;;;;30.35;18.40;;;;;;;1.81;72.09;98995.53;1761834;81;21005;-40
2022/11/21 02:21:27;;;;;;;27.75;17.48;;;;;;;1.80;72.07;98999.30;1761716;81;20985;-40
2022/11/21 02:24:05;;;;;;;24.92;17.02;;;;;;;1.75;71.73;99000.23;1758818;81;20969;-40
2022/11/21 02:26:32;;;;;;;26.62;17.75;;;;;;;1.66;71.94;99003.97;1745757;81;21090;-40
2022/11/21 02:28:59;;;;;;;27.10;17.57;;;;;;;1.68;71.96;99003.13;1762042;81;21009;-40
2022/11/21 02:31:25;;;;;;;23.10;16.70;;;;;;;1.72;71.91;98993.39;1738358;81;20922;-40
2022/11/21 02:33:52;;;;;;;24.45;17.40;;;;;;;1.77;72.24;99000.47;1761930;81;20970;-40
2022/11/21 02:36:41;;;;;;;25.02;16.48;;;;;;;1.79;72.09;98999.62;1762087;81;20934;-40
2022/11/21 02:39:21;;;;;;;26.15;16.93;;;;;;;1.80;72.17;98991.28;1761945;80;21130;-40
2022/11/21 02:42:03;;;;;;;22.52;15.78;;;;;;;1.78;72.08;98986.81;1755779;81;20958;-40
2022/11/21 02:44:45;;;;;;;26.17;17.35;;;;;;;1.78;72.07;98992.16;1761943;81;21472;-40
2022/11/21 02:47:13;;;;;;;23.67;16.23;;;;;;;1.87;71.97;98988.95;1739431;80;20978;-40
2022/11/21 02:49:54;;;;;;;25.75;16.87;;;;;;;1.88;71.48;98979.84;1761939;81;21649;-40
2022/11/21 02:52:21;;;;;;;23.50;16.17;;;;;;;1.78;71.33;98971.32;1761736;80;21848;-40
2022/11/21 02:54:49;;;;;;;24.85;17.55;;;;;;;1.68;71.74;98959.03;1761837;81;20934;-40
2022/11/21 02:57:16;;;;;;;24.63;16.93;;;;;;;1.66;71.78;98959.34;1761684;81;21008;-40
2022/11/21 02:59:42;;;;;;;23.92;17.12;;;;;;;1.69;71.80;98965.39;1761851;81;20994;-40
2022/11/21 03:02:09;;;;;;;22.35;16.07;;;;;;;1.70;71.55;98963.50;1768097;81;21361;-40
2022/11/21 03:04:37;;;;;;;24.20;16.07;;;;;;;1.66;72.00;98974.58;1770186;81;20958;-40
2022/11/21 03:07:04;;;;;;;27.30;16.65;;;;;;;1.67;72.07;98983.62;1769921;81;20930;-40
2022/11/21 03:09:31;;;;;;;24.07;16.75;;;;;;;1.71;72.21;98987.80;1770034;81;20997;-40
2022/11/21 03:11:58;;;;;;;28.52;18.85;;;;;;;1.78;72.17;98996.16;1769870;80;20973;-40
2022/11/21 03:14:25;;;;;;;31.45;20.25;;;;;;;1.81;71.99;98993.41;1769860;81;21005;-40
2022/11/21 03:16:51;;;;;;;31.90;20.35;;;;;;;1.80;71.55;98986.48;1770008;81;21069;-40
2022/11/21 03:19:20;;;;;;;37.40;21.77;;;;;;;1.76;71.75;98989.00;1770064;81;21515;-40
2022/11/21 03:21:46;;;;;;;34.30;20.62;;;;;;;1.79;71.43;98989.73;1770062;81;20977;-40
2022/11/21 03:24:14;;;;;;;37.25;21.87;;;;;;;1.75;71.41;98988.20;1770183;81;21571;-40
2022/11/21 03:26:41;;;;;;;36.90;22.15;;;;;;;1.72;71.82;98986.70;1770086;81;21002;-40
2022/11/21 03:29:07;;;;;;;40.85;23.67;;;;;;;1.79;72.00;98997.75;1770012;81;21244;-40
2022/11/21 03:31:34;;;;;;;39.90;24.02;;;;;;;1.85;72.00;98996.48;1769820;81;21524;-40
2022/11/21 03:34:01;;;;;;;34.80;22.73;;;;;;;1.93;71.88;98992.27;1769814;81;20942;-40
2022/11/21 03:36:28;;;;;;;44.08;23.85;;;;;;;2.02;71.68;98994.41;1769880;81;21534;-40
2022/11/21 03:38:56;;;;;;;40.95;23.35;;;;;;;2.11;71.27;98990.66;1770020;81;21006;-40
2022/11/21 03:41:30;;;;;;;37.73;22.70;;;;;;;2.12;71.00;98993.57;1769918;81;21133;-40
2022/11/21 03:44:06;;;;;;;41.73;23.80;;;;;;;2.14;70.99;98990.56;1769788;81;21005;-40
2022/11/21 03:46:35;;;;;;;45.00;24.82;;;;;;;2.15;70.86;98986.80;1770192;81;21005;-40
2022/11/21 03:49:01;;;;;;;37.13;23.23;;;;;;;2.17;70.89;98979.27;1770461;80;21068;-40
2022/11/21 03:51:28;;;;;;;37.30;22.25;;;;;;;2.18;70.72;98974.92;1769973;81;21484;-40
2022/11/21 03:53:55;;;;;;;37.93;22.77;;;;;;;2.20;70.66;98983.97;1769978;81;21245;-40
2022/11/21 03:56:21;;;;;;;37.25;22.93;;;;;;;2.28;70.46;98980.51;1769752;81;21423;-40
2022/11/21 03:58:48;;;;;;;38.20;22.87;;;;;;;2.35;70.12;98966.13;1769991;81;20938;-40
2022/11/21 04:01:15;;;;;;;35.52;21.95;;;;;;;2.36;69.94;98966.92;1773918;80;21553;-40
2022/11/21 04:03:42;;;;;;;41.58;21.62;;;;;;;2.31;69.91;98973.77;1783855;80;21025;-40
2022/11/21 04:06:10;;;;;;;34.75;21.90;;;;;;;2.29;69.94;98962.58;1783899;80;21539;-40
2022/11/21 04:08:37;;;;;;;42.98;24.55;;;;;;;2.27;69.90;98962.91;1783835;80;20966;-40
2022/11/21 04:11:04;;;;;;;35.08;22.25;;;;;;;2.24;69.56;98960.05;1783884;80;21001;-40
2022/11/21 04:13:32;;;;;;;35.83;21.42;;;;;;;2.11;69.39;98958.56;1783848;80;21045;-40
2022/11/21 04:15:59;;;;;;;33.80;20.85;;;;;;;1.96;69.44;98956.34;1783976;80;20973;-40
2022/11/21 04:18:26;;;;;;;33.50;20.52;;;;;;;1.89;69.93;98964.59;1783909;80;21133;-40
2022/11/21 04:20:58;;;;;;;37.67;20.82;;;;;;;1.82;70.31;98966.92;1783770;80;20985;-40
2022/11/21 04:23:26;;;;;;;36.60;22.85;;;;;;;1.82;70.66;98961.03;1783279;80;21008;-40
2022/11/21 04:25:52;;;;;;;38.58;21.97;;;;;;;1.80;70.60;98963.22;1783761;80;21053;-40
2022/11/21 04:28:19;;;;;;;31.35;20.62;;;;;;;1.78;70.63;98965.98;1783743;80;21270;-40
2022/11/21 04:30:46;;;;;;;32.50;21.75;;;;;;;1.78;70.72;98965.43;1783820;80;21228;-40
2022/11/21 04:33:15;;;;;;;35.43;22.10;;;;;;;1.74;70.68;98955.13;1783562;80;20993;-40
2022/11/21 04:35:42;;;;;;;38.88;22.15;;;;;;;1.67;70.96;98969.48;1783961;80;21521;-40
2022/11/21 04:38:10;;;;;;;32.23;20.85;;;;;;;1.57;71.33;98961.75;1783903;80;20945;-40
2022/11/21 04:40:36;;;;;;;32.28;20.02;;;;;;;1.57;71.71;98964.41;1783617;80;21052;-40
2022/11/21 04:43:03;;;;;;;31.30;20.17;;;;;;;1.68;71.90;98969.18;1783622;80;23159;-40
2022/11/21 04:45:30;;;;;;;28.60;18.75;;;;;;;1.82;71.56;98961.58;1783607;80;20965;-40
2022/11/21 04:47:58;;;;;;;32.38;19.23;;;;;;;1.82;71.21;98957.02;1783639;80;20953;-40
2022/11/21 04:50:25;;;;;;;34.30;20.32;;;;;;;1.79;71.20;98952.31;1783755;80;20972;-40
2022/11/21 04:52:54;;;;;;;39.23;22.40;;;;;;;1.74;71.07;98949.78;1783885;80;21008;-40
2022/11/21 04:55:22;;;;;;;46.08;28.40;;;;;;;1.66;71.15;98936.63;1783471;80;23122;-40
2022/11/21 04:57:49;;;;;;;40.83;22.90;;;;;;;1.60;71.19;98933.06;1783797;80;20882;-40
2022/11/21 05:00:17;;;;;;;35.65;21.02;;;;;;;1.56;71.30;98931.57;1783679;80;21017;-40
2022/11/21 05:02:45;;;;;;;38.25;21.30;;;;;;;1.55;71.66;98924.64;1767053;80;21543;-40
2022/11/21 05:05:12;;;;;;;36.40;21.82;;;;;;;1.55;71.95;98916.63;1762053;81;21456;-40
2022/11/21 05:07:40;;;;;;;34.90;23.05;;;;;;;1.61;72.09;98923.95;1761996;81;21230;-40
2022/11/21 05:10:08;;;;;;;41.28;22.42;;;;;;;1.63;71.86;98928.45;1762053;81;21013;-40
2022/11/21 05:15:20;;;;;;;35.65;21.85;;;;;;;1.62;71.77;98912.17;1761819;81;20965;-40
2022/11/21 05:17:47;;;;;;;31.50;21.35;;;;;;;1.50;71.26;98905.33;1761920;81;21033;-40
2022/11/21 05:20:17;;;;;;;34.58;21.77;;;;;;;1.46;71.61;98900.34;1761660;81;21129;-40
2022/11/21 05:22:48;;;;;;;38.23;22.20;;;;;;;1.41;71.97;98901.82;1761941;80;27161;-40
2022/11/21 05:25:12;;;;;;;33.83;20.92;;;;;;;1.44;72.31;98914.57;1731709;80;21009;-40
2022/11/21 05:27:39;;;;;;;33.73;21.68;;;;;;;1.45;72.33;98909.48;1731426;82;21552;-40
2022/11/21 05:30:08;;;;;;;31.55;19.87;;;;;;;1.48;72.45;98903.50;1731588;82;21089;-40
2022/11/21 05:32:36;;;;;;;31.70;18.92;;;;;;;1.62;72.32;98900.95;1731741;82;21872;-40
2022/11/21 05:35:04;;;;;;;32.70;19.60;;;;;;;1.73;72.11;98893.42;1731619;82;21018;-40
2022/11/21 05:37:31;;;;;;;31.27;19.60;;;;;;;1.79;71.84;98884.72;1731511;81;21029;-40
2022/11/21 05:39:58;;;;;;;26.27;18.42;;;;;;;1.83;71.61;98883.77;1731453;82;21021;-40
2022/11/21 05:45:10;;;;;;;29.63;19.15;;;;;;;1.85;71.22;98862.05;1731604;81;21982;-40
2022/11/21 05:47:37;;;;;;;33.18;19.67;;;;;;;1.76;71.01;98855.38;1731620;82;20902;-40
2022/11/21 05:50:05;;;;;;;30.60;19.20;;;;;;;1.74;71.08;98857.59;1731808;82;21010;-40
2022/11/21 05:52:33;;;;;;;31.65;19.23;;;;;;;1.75;71.19;98864.48;1732057;82;21092;-40
2022/11/21 05:55:00;;;;;;;28.35;18.20;;;;;;;1.87;71.05;98867.89;1731583;81;21042;-40
2022/11/21 05:57:27;;;;;;;27.70;18.50;;;;;;;1.94;70.84;98877.55;1731549;82;23102;-40
2022/11/21 05:59:54;;;;;;;25.43;18.57;;;;;;;1.93;70.48;98880.80;1731753;82;21022;-40
2022/11/21 06:05:07;;;;;;;22.67;16.00;;;;;;;1.81;70.34;98882.50;1731767;82;21515;-40
2022/11/21 11:31:03;;;;;;;11.63;9.13;;;;;;;2.27;75.47;98597.84;1755418;80;22728;-40
2022/11/21 11:33:40;;;;;;;13.00;9.23;;;;;;;2.38;74.72;98599.58;1717586;81;20988;-40
2022/11/21 11:36:58;;;;;;;11.43;9.60;;;;;;;2.29;74.35;98602.86;1749889;82;21227;-40
2022/11/21 11:40:21;;;;;;;12.40;9.08;;;;;;;2.24;74.47;98605.16;1749683;82;21487;-40
2022/11/21 11:49:18;;;;;;;12.37;9.03;;;;;;;2.12;74.00;98573.78;1749556;82;20985;-40
2022/11/21 11:51:50;;;;;;;13.18;9.23;;;;;;;2.08;73.98;98568.83;1749660;82;21148;-40
2022/11/21 11:54:35;;;;;;;11.00;7.95;;;;;;;2.02;74.26;98561.33;1749470;82;20965;-40
2022/11/21 11:57:02;;;;;;;9.80;7.40;;;;;;;1.93;74.33;98559.25;1747813;82;21068;-40
2022/11/21 11:59:36;;;;;;;8.30;6.40;;;;;;;1.85;74.57;98555.50;1749653;82;20997;-40
2022/11/21 12:02:21;;;;;;;8.33;6.55;;;;;;;1.89;74.65;98544.39;1745147;82;21288;-40
2022/11/21 12:04:59;;;;;;;8.08;6.20;;;;;;;1.94;74.37;98534.07;1745076;82;21141;-40
2022/11/21 12:07:30;;;;;;;7.42;5.87;;;;;;;1.92;74.59;98519.72;1745033;82;20977;-40
2022/11/21 12:10:20;;;;;;;7.78;6.17;;;;;;;1.90;74.59;98510.44;1744994;82;20937;-40
2022/11/21 12:12:51;;;;;;;4.97;4.20;;;;;;;1.85;74.58;98511.41;1745337;82;21048;-40
2022/11/21 12:15:50;;;;;;;8.53;5.53;;;;;;;1.83;74.89;98504.28;1744871;82;21312;-40
2022/11/21 12:18:49;;;;;;;5.50;4.90;;;;;;;1.84;74.86;98483.11;1745005;82;21256;-40
2022/11/21 12:21:17;;;;;;;6.20;4.92;;;;;;;1.85;74.85;98482.00;1745157;82;20965;-40
2022/11/21 12:23:51;;;;;;;5.45;4.70;;;;;;;1.83;75.05;98477.55;1745191;82;21530;-40
2022/11/21 12:26:51;;;;;;;6.05;4.85;;;;;;;1.81;75.06;98469.62;1744840;82;21037;-40
2022/11/21 12:29:23;;;;;;;5.65;4.28;;;;;;;1.80;75.28;98464.82;1744840;81;21190;-40
2022/11/21 12:32:18;;;;;;;6.67;4.40;;;;;;;1.85;74.92;98459.30;1742727;81;21325;-40
2022/11/21 12:35:00;;;;;;;4.80;4.30;;;;;;;1.89;74.81;98460.20;1758901;81;21595;-40
2022/11/21 12:37:46;;;;;;;4.75;4.22;;;;;;;1.91;74.86;98449.98;1732174;82;21541;-40
2022/11/21 12:40:51;;;;;;;5.97;4.55;;;;;;;1.89;74.91;98441.50;1763571;81;21048;-40
2022/11/21 12:43:46;;;;;;;4.65;4.12;;;;;;;1.84;74.88;98433.67;1759143;81;21004;-40
2022/11/21 12:46:24;;;;;;;4.50;3.90;;;;;;;1.84;75.04;98429.66;1731866;82;21148;-40
2022/11/21 12:55:30;;;;;;;5.50;4.37;;;;;;;1.90;75.24;98406.98;1734502;82;21097;-40
2022/11/21 12:58:14;;;;;;;5.33;3.90;;;;;;;1.84;75.23;98402.18;1734507;82;21084;-40
2022/11/21 13:01:10;;;;;;;5.35;4.42;;;;;;;1.83;75.44;98394.72;1753800;81;23270;-40
2022/11/21 13:04:00;;;;;;;4.78;3.90;;;;;;;1.84;75.21;98380.22;1763580;81;21497;-40
2022/11/21 13:06:30;;;;;;;5.08;4.10;;;;;;;1.85;75.12;98363.09;1763876;81;20988;-40
2022/11/21 13:09:01;;;;;;;4.50;3.58;;;;;;;1.78;75.31;98354.04;1764087;81;21040;-40
2022/11/21 13:11:58;;;;;;;4.17;3.40;;;;;;;1.73;75.50;98334.98;1763472;81;21040;-40
2022/11/21 13:15:01;;;;;;;4.12;3.12;;;;;;;1.67;75.83;98322.91;1732057;82;21489;-40
2022/11/21 13:17:53;;;;;;;4.37;3.22;;;;;;;1.65;76.04;98321.11;1763959;81;21516;-40
2022/11/21 13:20:34;;;;;;;4.62;3.40;;;;;;;1.68;76.14;98315.13;1759304;81;21556;-40
2022/11/21 13:23:05;;;;;;;3.70;3.10;;;;;;;1.68;76.23;98308.45;1731515;82;21366;-40
2022/11/21 13:25:38;;;;;;;4.20;3.52;;;;;;;1.67;76.26;98309.00;1763891;81;21070;-40
2022/11/21 13:28:19;;;;;;;3.20;2.75;;;;;;;1.67;76.28;98306.88;1732044;82;21095;-40
2022/11/21 13:30:52;;;;;;;3.90;3.15;;;;;;;1.70;76.24;98309.68;1756510;81;20992;-40
2022/11/21 13:33:43;;;;;;;3.12;2.83;;;;;;;1.77;75.98;98319.85;1746176;81;20988;-40
2022/11/21 13:36:34;;;;;;;3.40;2.45;;;;;;;1.78;76.07;98310.73;1752127;81;21072;-40
2022/11/21 13:39:07;;;;;;;2.80;2.50;;;;;;;1.72;75.80;98298.67;1752234;81;21542;-40
2022/11/21 13:44:32;;;;;;;2.20;2.00;;;;;;;1.64;75.67;98300.87;1752214;81;20993;-40
2022/11/21 13:47:13;;;;;;;3.52;2.20;;;;;;;1.69;75.92;98303.34;1751915;81;20969;-40
2022/11/21 13:50:00;;;;;;;2.52;2.17;;;;;;;1.71;75.67;98306.45;1749070;81;21499;-40
2022/11/21 13:52:48;;;;;;;3.17;2.35;;;;;;;1.69;75.65;98306.02;1728760;81;21056;-40
2022/11/21 13:55:42;;;;;;;2.25;1.90;;;;;;;1.63;75.73;98301.97;1752409;81;21227;-40
2022/11/21 13:58:46;;;;;;;2.30;2.10;;;;;;;1.58;76.20;98304.84;1752147;81;20925;-40
2022/11/21 14:01:47;;;;;;;2.25;2.05;;;;;;;1.58;76.01;98303.50;1752199;81;20941;-40
2022/11/21 14:04:25;;;;;;;2.37;2.17;;;;;;;1.63;76.10;98309.98;1744985;81;21016;-40
2022/11/21 14:06:52;;;;;;;3.20;2.50;;;;;;;1.61;76.28;98297.50;1752206;81;20976;-40
2022/11/21 14:09:25;;;;;;;2.85;2.55;;;;;;;1.62;76.42;98297.18;1725126;81;20969;-40
2022/11/21 14:12:03;;;;;;;2.98;2.47;;;;;;;1.63;76.29;98313.99;1752161;81;21015;-40
2022/11/21 14:14:54;;;;;;;3.20;2.40;;;;;;;1.65;76.15;98303.74;1751430;81;21534;-40
2022/11/21 14:17:45;;;;;;;2.98;2.52;;;;;;;1.67;76.08;98294.86;1752022;81;21378;-40
2022/11/21 14:20:21;;;;;;;4.42;3.00;;;;;;;1.61;76.21;98280.92;1752108;81;21072;-40
2022/11/21 14:23:05;;;;;;;3.08;2.58;;;;;;;1.59;76.54;98279.70;1752413;81;21762;-40
2022/11/21 14:25:48;;;;;;;3.40;2.75;;;;;;;1.58;76.30;98273.56;1752158;81;21016;-40
2022/11/21 14:28:27;;;;;;;3.80;2.80;;;;;;;1.59;76.25;98271.13;1752211;81;21001;-40
2022/11/21 14:30:59;;;;;;;2.33;2.12;;;;;;;1.57;76.26;98280.56;1758241;81;21032;-40
2022/11/21 14:33:36;;;;;;;3.52;2.50;;;;;;;1.51;76.39;98272.52;1731880;82;21533;-40
2022/11/21 14:36:08;;;;;;;2.52;2.20;;;;;;;1.48;76.62;98275.84;1763247;81;23132;-40
2022/11/21 14:38:45;;;;;;;3.35;2.92;;;;;;;1.50;76.82;98268.30;1737989;81;20991;-40
2022/11/21 14:41:28;;;;;;;2.33;2.02;;;;;;;1.62;76.91;98274.47;1731458;82;21526;-40
2022/11/21 14:44:03;;;;;;;1.98;1.67;;;;;;;1.73;76.63;98260.95;1763233;81;21565;-40
2022/11/21 14:46:39;;;;;;;2.70;2.08;;;;;;;1.73;76.74;98259.61;1760898;81;21054;-40
2022/11/21 14:49:17;;;;;;;2.20;2.00;;;;;;;1.77;76.72;98258.95;1731735;82;21680;-40
2022/11/21 14:51:54;;;;;;;2.67;2.05;;;;;;;1.79;76.58;98256.74;1763066;81;21004;-40
2022/11/21 14:54:26;;;;;;;1.90;1.62;;;;;;;1.84;76.70;98253.29;1760935;81;21055;-40
2022/11/21 14:57:00;;;;;;;2.65;2.10;;;;;;;1.92;75.93;98266.36;1731553;82;20980;-40
2022/11/21 14:59:34;;;;;;;2.37;2.10;;;;;;;1.95;75.71;98267.81;1763236;81;21094;-40
2022/11/21 15:02:22;;;;;;;2.83;2.25;;;;;;;1.95;75.84;98265.69;1763449;81;21190;-40
2022/11/21 15:04:51;;;;;;;3.22;2.10;;;;;;;1.95;75.80;98269.15;1763668;81;21001;-40
2022/11/21 15:07:24;;;;;;;3.08;2.40;;;;;;;1.94;75.80;98279.61;1761094;81;20995;-40
2022/11/21 15:09:51;;;;;;;3.55;2.75;;;;;;;1.97;75.62;98281.64;1731955;82;21013;-40
2022/11/21 15:12:47;;;;;;;3.05;2.40;;;;;;;2.01;75.50;98283.88;1763216;81;20980;-40
2022/11/21 15:15:41;;;;;;;3.20;2.65;;;;;;;2.02;75.52;98294.02;1714444;81;21148;-40
2022/11/21 15:18:22;;;;;;;3.42;2.55;;;;;;;1.99;75.53;98293.31;1763373;80;20932;-40
2022/11/21 15:20:57;;;;;;;3.85;2.60;;;;;;;1.91;75.59;98282.16;1763117;81;20917;-40
2022/11/21 15:23:34;;;;;;;4.45;2.77;;;;;;;1.91;75.74;98280.27;1759972;81;20991;-40
2022/11/21 15:26:01;;;;;;;3.67;2.90;;;;;;;2.03;75.69;98277.63;1763389;81;20925;-40
2022/11/21 15:28:29;;;;;;;3.10;2.75;;;;;;;2.10;75.58;98274.43;1763124;81;21303;-40
2022/11/21 15:31:18;;;;;;;3.77;2.80;;;;;;;2.12;75.51;98266.33;1760778;81;20992;-40
2022/11/21 15:34:05;;;;;;;3.87;3.00;;;;;;;1.84;75.38;98219.13;1731834;82;20917;-40
2022/11/21 15:36:32;;;;;;;3.60;2.85;;;;;;;2.14;75.49;98249.38;1762760;81;21020;-40
2022/11/21 15:39:03;;;;;;;4.60;3.27;;;;;;;2.17;75.47;98226.01;1731456;82;21003;-40
2022/11/21 15:41:35;;;;;;;4.05;3.22;;;;;;;2.21;75.39;98213.30;1763083;81;21251;-40
2022/11/21 15:44:09;;;;;;;3.75;3.02;;;;;;;2.28;75.03;98210.84;1760874;81;21619;-40
2022/11/21 15:46:40;;;;;;;3.02;2.52;;;;;;;2.27;74.86;98209.31;1731367;82;21521;-40
2022/11/21 15:49:05;;;;;;;2.80;2.33;;;;;;;2.22;74.98;98219.66;1763271;81;21016;-40
2022/11/21 15:51:39;;;;;;;3.52;2.30;;;;;;;2.24;75.09;98213.41;1761177;81;21014;-40
2022/11/21 15:54:16;;;;;;;2.42;2.22;;;;;;;2.25;74.97;98204.84;1729115;82;21146;-40
2022/11/21 15:56:45;;;;;;;3.00;2.27;;;;;;;2.24;74.94;98207.28;1763251;81;20984;-40
2022/11/21 15:59:12;;;;;;;2.50;2.08;;;;;;;2.31;74.95;98214.21;1761053;81;20955;-40
2022/11/21 16:01:39;;;;;;;2.35;2.02;;;;;;;2.39;74.68;98203.95;1731704;82;21009;-40
2022/11/21 16:04:07;;;;;;;2.22;2.00;;;;;;;2.40;74.34;98194.27;1763259;81;21043;-40
2022/11/21 16:06:34;;;;;;;2.90;2.17;;;;;;;2.36;74.05;98188.59;1732031;82;21781;-40
2022/11/21 16:09:02;;;;;;;2.62;2.40;;;;;;;2.29;74.14;98183.00;1763192;81;21560;-40
2022/11/21 16:11:33;;;;;;;3.20;2.20;;;;;;;2.26;74.41;98183.12;1761074;81;21474;-40
2022/11/21 16:14:03;;;;;;;2.75;1.98;;;;;;;2.33;74.38;98171.85;1763478;80;20933;-40
2022/11/21 16:16:39;;;;;;;2.35;2.12;;;;;;;2.39;73.93;98146.45;1763469;81;20956;-40
2022/11/21 16:19:06;;;;;;;2.40;2.08;;;;;;;2.38;73.87;98138.98;1760976;81;21111;-40
2022/11/21 16:21:35;;;;;;;3.37;1.98;;;;;;;2.38;74.02;98130.18;1731525;82;21573;-40
2022/11/21 16:24:02;;;;;;;2.05;1.72;;;;;;;2.33;73.97;98116.48;1763170;81;21099;-40
2022/11/21 16:26:29;;;;;;;2.05;1.77;;;;;;;1.95;73.75;98052.66;1760954;81;20968;-40
2022/11/21 16:28:57;;;;;;;2.20;1.70;;;;;;;2.24;74.11;98092.30;1731615;82;20973;-40
2022/11/21 16:31:26;;;;;;;1.65;1.55;;;;;;;2.20;74.28;98088.19;1758422;81;21103;-40
2022/11/21 16:33:54;;;;;;;1.92;1.50;;;;;;;2.26;74.01;98088.75;1752363;81;20930;-40
2022/11/21 16:36:28;;;;;;;1.82;1.45;;;;;;;2.25;74.08;98089.86;1752132;81;20968;-40
2022/11/21 16:38:56;;;;;;;2.35;1.70;;;;;;;2.19;74.03;98098.10;1752163;81;20969;-40
2022/11/21 16:41:23;;;;;;;2.10;1.90;;;;;;;2.15;74.12;98106.58;1752340;81;20988;-40
2022/11/21 16:43:52;;;;;;;2.45;1.82;;;;;;;2.14;74.31;98101.00;1752308;81;21307;-40
2022/11/21 16:46:21;;;;;;;2.27;2.05;;;;;;;2.16;74.26;98106.80;1751976;81;20979;-40
2022/11/21 16:48:47;;;;;;;2.40;2.20;;;;;;;2.25;74.16;98112.59;1752455;81;21517;-40
2022/11/21 16:51:18;;;;;;;2.22;2.02;;;;;;;2.31;73.96;98108.58;1752277;81;21072;-40
2022/11/21 16:53:46;;;;;;;2.45;2.00;;;;;;;2.28;73.95;98102.55;1752781;81;21632;-40
2022/11/21 16:56:14;;;;;;;;;;;;;;;2.24;74.02;98098.44;1754936;81;21244;-40
2022/11/21 16:58:41;;;;;;;2.27;1.92;;;;;;;2.21;74.00;98104.46;1752406;81;20415;-40
2022/11/21 17:01:17;;;;;;;2.40;2.10;;;;;;;2.09;74.36;98106.56;1752328;81;20981;-40
2022/11/21 17:03:46;;;;;;;2.35;2.00;;;;;;;2.13;74.19;98096.76;1752488;81;21000;-40
2022/11/21 17:06:16;;;;;;;1.67;1.57;;;;;;;2.17;74.00;98100.91;1752660;81;21037;-40
2022/11/21 17:08:42;;;;;;;3.22;2.08;;;;;;;2.21;73.96;98105.02;1752468;81;21118;-40
2022/11/21 17:11:22;;;;;;;2.40;2.10;;;;;;;2.19;74.09;98107.46;1752244;81;21000;-40
2022/11/21 17:13:50;;;;;;;2.77;2.40;;;;;;;2.18;74.10;98098.42;1752117;81;21008;-40
2022/11/21 17:16:20;;;;;;;2.85;1.90;;;;;;;2.11;74.12;98100.34;1752170;81;21529;-40
2022/11/21 17:18:53;;;;;;;2.08;1.87;;;;;;;2.10;74.38;98094.77;1752401;81;20993;-40
2022/11/21 17:21:20;;;;;;;2.22;1.70;;;;;;;2.14;74.38;98086.30;1751120;81;21935;-40
2022/11/21 17:23:49;;;;;;;3.15;1.50;;;;;;;2.26;74.28;98079.39;1752053;81;20996;-40
2022/11/21 17:26:21;;;;;;;2.40;1.60;;;;;;;2.32;74.09;98082.06;1752224;81;21204;-40
2022/11/21 17:28:56;;;;;;;2.00;1.70;;;;;;;2.33;74.30;98075.58;1752099;81;20941;-40
2022/11/21 17:31:23;;;;;;;2.22;1.70;;;;;;;2.35;74.13;98069.35;1751734;81;21057;-40
2022/11/21 17:33:53;;;;;;;2.75;2.00;;;;;;;2.34;74.18;98063.77;1752162;81;21208;-40
2022/11/21 17:36:22;;;;;;;1.80;1.60;;;;;;;2.34;74.03;98062.44;1756315;81;21673;-40
2022/11/21 17:38:49;;;;;;;2.30;1.92;;;;;;;2.36;74.06;98056.98;1765519;81;21004;-40
2022/11/21 17:41:17;;;;;;;2.75;1.60;;;;;;;2.41;73.92;98056.76;1765263;81;20909;-40
2022/11/21 17:43:44;;;;;;;2.40;1.70;;;;;;;2.45;73.83;98045.60;1765334;81;21023;-40
2022/11/21 17:46:15;;;;;;;2.40;1.80;;;;;;;2.45;73.92;98048.83;1765178;81;21307;-40
2022/11/21 17:48:43;;;;;;;1.57;1.47;;;;;;;2.46;73.92;98050.39;1765168;81;20937;-40